createdAt,value
2023-03-17T14:06:57.434Z,0.00
2023-03-17T14:08:04.443Z,45650.00
2023-03-17T14:08:57.552Z,48610.00
2023-03-17T14:09:57.585Z,40855.00
2023-03-17T14:10:57.680Z,44387.00
2023-03-17T14:11:57.692Z,33824.00
2023-03-17T14:13:01.974Z,34225.00
2023-03-17T14:13:57.798Z,35750.00
2023-03-17T14:14:57.851Z,49915.00
2023-03-17T14:15:58.014Z,55388.00
2023-03-17T14:16:57.989Z,58348.00
2023-03-17T14:17:58.055Z,55531.00
2023-03-17T14:19:04.943Z,52634.00
2023-03-17T14:19:58.134Z,62390.00
2023-03-17T14:20:58.210Z,65010.00
2023-03-17T14:21:58.242Z,12004.00
2023-03-17T14:22:58.282Z,15265.00
2023-03-17T14:23:58.357Z,9836.00
2023-03-17T14:24:58.411Z,64096.00
2023-03-17T14:25:58.470Z,46050.00
2023-03-17T14:26:58.498Z,48236.00
2023-03-17T14:28:02.249Z,2344.00
2023-03-17T14:29:05.439Z,1780.00
2023-03-17T14:29:58.662Z,63793.00
2023-03-17T14:31:05.464Z,2771.00
2023-03-17T14:32:05.605Z,55741.00
2023-03-17T14:33:05.519Z,50101.00
2023-03-17T14:34:05.450Z,52154.00
2023-03-17T14:35:05.503Z,43242.00
2023-03-17T14:36:05.980Z,50738.00
2023-03-17T14:37:05.948Z,42374.00
2023-03-17T14:38:02.284Z,40459.00
2023-03-17T14:39:02.506Z,37923.00
2023-03-17T14:40:02.309Z,33881.00
2023-03-17T14:41:02.326Z,34437.00
2023-03-17T14:42:02.322Z,33316.00
2023-03-17T14:43:02.354Z,28986.00
2023-03-17T14:43:59.450Z,28944.00
2023-03-17T14:44:59.444Z,28227.00
2023-03-17T14:45:59.528Z,27460.00
2023-03-17T14:47:00.457Z,27326.00
2023-03-17T14:47:59.642Z,25944.00
2023-03-17T14:48:59.683Z,25158.00
2023-03-17T14:49:59.712Z,24559.00
2023-03-17T14:51:00.634Z,23845.00
2023-03-17T14:51:59.817Z,24717.00
2023-03-17T14:52:59.912Z,23238.00
2023-03-17T14:53:59.976Z,28161.00
2023-03-17T14:54:59.983Z,26864.00
2023-03-17T14:56:00.969Z,26574.00
2023-03-17T14:57:00.125Z,25162.00
2023-03-17T14:58:00.123Z,26160.00
2023-03-17T14:59:00.222Z,24907.00
2023-03-17T15:00:00.233Z,26316.00
2023-03-17T15:01:03.005Z,24283.00
2023-03-17T15:02:01.317Z,23634.00
2023-03-17T15:03:00.388Z,24189.00
2023-03-17T15:04:00.468Z,25453.00
2023-03-17T15:05:00.495Z,24354.00
2023-03-17T15:06:01.465Z,23498.00
2023-03-17T15:07:00.585Z,23305.00
2023-03-17T15:08:00.644Z,21876.00
2023-03-17T15:09:00.721Z,24648.00
2023-03-17T15:10:00.752Z,24642.00
2023-03-17T15:11:00.793Z,22981.00
2023-03-17T15:12:00.851Z,22937.00
2023-03-17T15:13:00.928Z,23090.00
2023-03-17T15:14:00.964Z,21396.00
2023-03-17T15:15:00.990Z,21188.00
2023-03-17T15:16:01.062Z,20064.00
2023-03-17T15:17:01.191Z,19849.00
2023-03-17T15:18:01.213Z,19680.00
2023-03-17T15:19:01.198Z,19434.00
2023-03-17T15:20:01.257Z,19331.00
2023-03-17T15:21:01.301Z,19280.00
2023-03-17T15:22:01.383Z,19320.00
2023-03-17T15:23:01.401Z,19142.00
2023-03-17T15:24:03.216Z,18893.00
2023-03-17T15:25:01.662Z,18621.00
2023-03-17T15:26:01.617Z,18580.00
2023-03-17T15:27:01.613Z,18186.00
2023-03-17T15:28:02.479Z,18228.00
2023-03-17T15:29:01.737Z,17931.00
2023-03-17T15:30:01.763Z,17540.00
2023-03-17T15:31:01.872Z,17371.00
2023-03-17T15:32:01.869Z,17081.00
2023-03-17T15:33:01.970Z,16562.00
2023-03-17T15:34:02.002Z,16380.00
2023-03-17T15:35:02.044Z,16096.00
2023-03-17T15:36:02.139Z,15775.00
2023-03-17T15:37:02.153Z,15371.00
2023-03-17T15:38:02.164Z,15029.00
2023-03-17T15:39:02.219Z,14873.00
2023-03-17T15:40:02.307Z,14634.00
2023-03-17T15:41:02.345Z,14807.00
2023-03-17T15:42:02.366Z,14440.00
2023-03-17T15:43:02.422Z,14690.00
2023-03-17T15:44:04.084Z,15149.00
2023-03-17T15:45:02.567Z,14823.00
2023-03-17T15:46:02.564Z,14629.00
2023-03-17T15:47:02.624Z,14279.00
2023-03-17T15:48:02.664Z,14449.00
2023-03-17T15:49:26.980Z,14561.00
2023-03-17T15:50:02.768Z,14670.00
2023-03-17T15:51:02.822Z,14902.00
2023-03-17T15:52:02.891Z,14796.00
2023-03-17T15:53:02.923Z,14588.00
2023-03-17T15:54:02.959Z,14621.00
2023-03-17T15:55:05.066Z,14358.00
2023-03-17T15:56:03.071Z,13994.00
2023-03-17T15:57:03.119Z,13840.00
2023-03-17T15:58:03.160Z,14056.00
2023-03-17T15:59:03.227Z,14062.00
2023-03-17T16:00:03.295Z,13284.00
2023-03-17T16:01:04.007Z,12808.00
2023-03-17T16:02:03.389Z,12288.00
2023-03-17T16:03:03.420Z,11919.00
2023-03-17T16:04:03.516Z,11565.00
2023-03-17T16:05:03.520Z,11550.00
2023-03-17T16:06:03.560Z,11193.00
2023-03-17T16:07:03.646Z,10844.00
2023-03-17T16:08:04.505Z,10761.00
2023-03-17T16:09:03.710Z,10710.00
2023-03-17T16:10:03.870Z,10620.00
2023-03-17T16:11:04.471Z,10356.00
2023-03-17T16:12:04.347Z,10033.00
2023-03-17T16:13:03.916Z,9880.00
2023-03-17T16:14:03.976Z,9679.00
2023-03-17T16:15:13.224Z,9508.00
2023-03-17T16:16:04.146Z,9435.00
2023-03-17T16:17:04.106Z,9333.00
2023-03-17T16:18:04.212Z,9286.00
2023-03-17T16:19:04.238Z,9286.00
2023-03-17T16:20:04.264Z,9209.00
2023-03-17T16:21:04.316Z,9176.00
2023-03-17T16:22:04.359Z,9203.00
2023-03-17T16:23:04.432Z,9273.00
2023-03-17T16:24:04.489Z,9261.00
2023-03-17T16:25:04.549Z,9002.00
2023-03-17T16:26:14.287Z,8664.00
2023-03-17T16:27:04.603Z,8496.00
2023-03-17T16:28:04.662Z,8432.00
2023-03-17T16:29:06.213Z,8213.00
2023-03-17T16:30:04.786Z,8031.00
2023-03-17T16:31:06.538Z,7988.00
2023-03-17T16:32:04.897Z,7768.00
2023-03-17T16:33:05.007Z,7552.00
2023-03-17T16:34:05.019Z,7359.00
2023-03-17T16:35:06.602Z,7174.00
2023-03-17T16:36:05.165Z,6965.00
2023-03-17T16:37:05.096Z,6792.00
2023-03-17T16:38:05.149Z,6719.00
2023-03-17T16:39:05.197Z,6522.00
2023-03-17T16:40:05.258Z,6308.00
2023-03-17T16:41:05.321Z,6107.00
2023-03-17T16:42:05.349Z,5906.00
2023-03-17T16:43:12.917Z,5704.00
2023-03-17T16:44:05.472Z,5507.00
2023-03-17T16:45:05.516Z,5326.00
2023-03-17T16:46:05.644Z,5151.00
2023-03-17T16:47:05.646Z,4965.00
2023-03-17T16:48:05.641Z,4833.00
2023-03-17T16:49:05.745Z,4657.00
2023-03-17T16:50:05.738Z,4477.00
2023-03-17T16:51:06.495Z,4328.00
2023-03-17T16:52:05.863Z,4175.00
2023-03-17T16:53:05.901Z,4023.00
2023-03-17T16:54:05.962Z,3876.00
2023-03-17T16:55:06.502Z,3737.00
2023-03-17T16:56:06.046Z,3625.00
2023-03-17T16:57:07.787Z,3502.00
2023-03-17T16:58:06.144Z,3402.00
2023-03-17T16:59:06.224Z,3313.00
2023-03-17T17:00:06.250Z,3215.00
2023-03-17T17:01:07.004Z,3126.00
2023-03-17T17:02:06.376Z,3014.00
2023-03-17T17:03:06.426Z,2941.00
2023-03-17T17:04:06.427Z,2846.00
2023-03-17T17:05:15.049Z,2763.00
2023-03-17T17:06:06.515Z,2659.00
2023-03-17T17:07:06.607Z,2541.00
2023-03-17T17:08:06.630Z,2468.00
2023-03-17T17:09:06.683Z,2373.00
2023-03-17T17:10:06.715Z,2268.00
2023-03-17T17:11:06.802Z,2116.00
2023-03-17T17:12:17.957Z,1968.00
2023-03-17T17:13:36.396Z,1816.00
2023-03-17T17:14:06.921Z,1645.00
2023-03-17T17:15:07.565Z,1504.00
2023-03-17T17:16:07.073Z,1368.00
2023-03-17T17:17:07.053Z,1244.00
2023-03-17T17:18:07.114Z,1125.00
2023-03-17T17:19:14.091Z,1031.00
2023-03-17T17:20:07.207Z,917.00
2023-03-17T17:21:07.290Z,842.00
2023-03-17T17:22:07.299Z,757.00
2023-03-17T17:23:07.387Z,689.00
2023-03-17T17:24:07.403Z,613.00
2023-03-17T17:25:07.430Z,548.00
2023-03-17T17:26:07.515Z,489.00
2023-03-17T17:27:07.541Z,449.00
2023-03-17T17:28:07.691Z,401.00
2023-03-17T17:29:07.643Z,366.00
2023-03-17T17:30:07.692Z,330.00
2023-03-17T17:31:14.594Z,305.00
2023-03-17T17:32:08.086Z,282.00
2023-03-17T17:33:07.899Z,245.00
2023-03-17T17:34:07.916Z,224.00
2023-03-17T17:35:07.946Z,207.00
2023-03-17T17:36:08.112Z,179.00
2023-03-17T17:37:08.032Z,163.00
2023-03-17T17:38:08.073Z,139.00
2023-03-17T17:39:08.190Z,124.00
2023-03-17T17:40:08.170Z,103.00
2023-03-17T17:41:08.208Z,101.00
2023-03-17T17:42:08.278Z,84.00
2023-03-17T17:43:08.392Z,68.00
2023-03-17T17:44:08.382Z,58.00
2023-03-17T17:45:08.408Z,46.00
2023-03-17T17:46:19.030Z,42.00
2023-03-17T17:47:12.734Z,33.00
2023-03-17T17:51:36.660Z,18.00
2023-03-17T17:52:36.459Z,9.00
2023-03-17T17:53:36.521Z,9.00
2023-03-17T17:54:36.510Z,4.00
2023-03-17T17:55:36.578Z,4.00
2023-03-17T17:56:36.511Z,0.00
2023-03-17T17:57:36.557Z,0.00
